SAS62A EBBR-EKCH
Flight info
| Callsign | SAS62A |
|---|---|
| Flight time | 1h 12m |
| Altitude | 32000 |
| Route | NIK L191 VICOT N873 SPY/N0442F310 DCT DOSUR/N0445F330 P729 TUDLO |
| Aircraft | B738/M-SDE2E3FGHIRWXY/LB1 |
Departure
| Time | 2026-05-04 07:52 |
|---|---|
| Airport | Brussels Airport (EBBR) |
Arrival
| Time | 2026-05-04 09:04 |
|---|---|
| Airport | Copenhagen Kastrup Airport (EKCH) |
| Time | Latitude | Longitude | Altitude | Speed | Heading |
|---|---|---|---|---|---|
| 2026-05-04 07:24 | 50.90262 | 4.48518 | 118 ft | 0 kts | 335° |
| 2026-05-04 07:43 | 50.90252 | 4.48525 | 117 ft | 4 kts | 337° |
| 2026-05-04 07:44 | 50.90227 | 4.48540 | 119 ft | 4 kts | 345° |
| 2026-05-04 07:44 | 50.90200 | 4.48547 | 119 ft | 4 kts | 1° |
| 2026-05-04 07:44 | 50.90177 | 4.48539 | 120 ft | 4 kts | 47° |
| 2026-05-04 07:44 | 50.90172 | 4.48529 | 120 ft | 1 kts | 65° |
| 2026-05-04 07:49 | 50.90420 | 4.49386 | 122 ft | 18 kts | 65° |
| 2026-05-04 07:49 | 50.90441 | 4.49456 | 121 ft | 6 kts | 65° |
| 2026-05-04 07:49 | 50.90473 | 4.49561 | 122 ft | 17 kts | 58° |
| 2026-05-04 07:50 | 50.90619 | 4.49658 | 123 ft | 27 kts | 14° |
| 2026-05-04 07:50 | 50.90796 | 4.49729 | 123 ft | 25 kts | 14° |
| 2026-05-04 07:50 | 50.90953 | 4.49827 | 121 ft | 24 kts | 41° |
| 2026-05-04 07:50 | 50.91089 | 4.49936 | 117 ft | 14 kts | 5° |
| 2026-05-04 07:51 | 50.91121 | 4.49830 | 118 ft | 13 kts | 246° |
| 2026-05-04 07:51 | 50.91073 | 4.49658 | 117 ft | 36 kts | 246° |
| 2026-05-04 07:51 | 50.90868 | 4.48954 | 119 ft | 103 kts | 245° |
| 2026-05-04 07:51 | 50.90485 | 4.47638 | 123 ft | 157 kts | 243° |
| 2026-05-04 07:52 | 50.89990 | 4.45946 | 513 ft | 175 kts | 245° |
| 2026-05-04 07:52 | 50.89546 | 4.44156 | 1292 ft | 178 kts | 261° |
| 2026-05-04 07:52 | 50.89815 | 4.42155 | 1697 ft | 201 kts | 308° |
| 2026-05-04 07:52 | 50.90973 | 4.40777 | 1968 ft | 221 kts | 333° |
| 2026-05-04 07:53 | 50.92418 | 4.39620 | 2169 ft | 245 kts | 333° |
| 2026-05-04 07:54 | 51.03697 | 4.29939 | 5998 ft | 274 kts | 329° |
| 2026-05-04 07:55 | 51.05370 | 4.28439 | 6414 ft | 278 kts | 329° |
| 2026-05-04 07:55 | 51.07044 | 4.26936 | 7238 ft | 275 kts | 329° |
| 2026-05-04 07:55 | 51.08719 | 4.25429 | 7980 ft | 278 kts | 328° |
| 2026-05-04 07:55 | 51.10413 | 4.23902 | 8656 ft | 281 kts | 328° |
| 2026-05-04 07:56 | 51.12128 | 4.22354 | 9375 ft | 284 kts | 328° |
| 2026-05-04 07:56 | 51.13859 | 4.20790 | 10067 ft | 288 kts | 328° |
| 2026-05-04 07:56 | 51.15638 | 4.19180 | 10392 ft | 305 kts | 328° |
| 2026-05-04 07:56 | 51.17508 | 4.17366 | 10551 ft | 324 kts | 323° |
| 2026-05-04 07:57 | 51.19376 | 4.15167 | 10775 ft | 341 kts | 320° |
| 2026-05-04 07:57 | 51.21286 | 4.12852 | 11290 ft | 348 kts | 320° |
| 2026-05-04 07:57 | 51.23236 | 4.10524 | 11927 ft | 352 kts | 321° |
| 2026-05-04 07:57 | 51.25216 | 4.08195 | 12584 ft | 356 kts | 322° |
| 2026-05-04 07:58 | 51.27417 | 4.06311 | 13201 ft | 364 kts | 338° |
| 2026-05-04 07:58 | 51.29910 | 4.05365 | 13867 ft | 372 kts | 352° |
| 2026-05-04 07:58 | 51.32511 | 4.05228 | 14504 ft | 376 kts | 358° |
| 2026-05-04 07:58 | 51.35139 | 4.05244 | 15151 ft | 379 kts | 358° |
| 2026-05-04 07:59 | 51.37781 | 4.05263 | 15833 ft | 381 kts | 358° |
| 2026-05-04 07:59 | 51.40403 | 4.05247 | 16483 ft | 383 kts | 357° |
| 2026-05-04 07:59 | 51.43117 | 4.05204 | 17120 ft | 387 kts | 357° |
| 2026-05-04 07:59 | 51.45781 | 4.05177 | 17752 ft | 390 kts | 360° |
| 2026-05-04 08:00 | 51.48498 | 4.05737 | 18360 ft | 396 kts | 11° |
| 2026-05-04 08:00 | 51.51143 | 4.07092 | 18857 ft | 402 kts | 21° |
| 2026-05-04 08:00 | 51.53715 | 4.08964 | 19191 ft | 409 kts | 24° |
| 2026-05-04 08:02 | 51.72399 | 4.23122 | 22011 ft | 438 kts | 23° |
| 2026-05-04 08:02 | 51.75172 | 4.25199 | 22423 ft | 441 kts | 23° |
| 2026-05-04 08:02 | 51.77961 | 4.27286 | 22819 ft | 444 kts | 23° |
| 2026-05-04 08:03 | 51.80774 | 4.29390 | 23178 ft | 448 kts | 23° |
| 2026-05-04 08:03 | 51.83613 | 4.31517 | 23553 ft | 452 kts | 23° |
| 2026-05-04 08:03 | 51.86476 | 4.33665 | 23858 ft | 455 kts | 23° |
| 2026-05-04 08:03 | 51.89353 | 4.35827 | 24192 ft | 457 kts | 23° |
| 2026-05-04 08:04 | 51.92240 | 4.38001 | 24532 ft | 459 kts | 23° |
| 2026-05-04 08:04 | 51.95148 | 4.40194 | 24870 ft | 461 kts | 23° |
| 2026-05-04 08:04 | 51.98052 | 4.42388 | 25316 ft | 459 kts | 22° |
| 2026-05-04 08:04 | 52.00940 | 4.44574 | 25767 ft | 458 kts | 22° |
| 2026-05-04 08:05 | 52.03852 | 4.46779 | 25986 ft | 463 kts | 22° |
| 2026-05-04 08:05 | 52.06794 | 4.49009 | 26204 ft | 467 kts | 22° |
| 2026-05-04 08:05 | 52.09748 | 4.51252 | 26493 ft | 470 kts | 22° |
| 2026-05-04 08:05 | 52.12715 | 4.53510 | 26779 ft | 472 kts | 22° |
| 2026-05-04 08:06 | 52.15695 | 4.55780 | 27043 ft | 474 kts | 22° |
| 2026-05-04 08:06 | 52.18692 | 4.58068 | 27284 ft | 477 kts | 22° |
| 2026-05-04 08:06 | 52.21708 | 4.60372 | 27542 ft | 480 kts | 22° |
| 2026-05-04 08:06 | 52.24736 | 4.62690 | 27778 ft | 483 kts | 22° |
| 2026-05-04 08:08 | 52.46334 | 4.79417 | 29307 ft | 502 kts | 22° |
| 2026-05-04 08:08 | 52.49501 | 4.81883 | 29530 ft | 503 kts | 22° |
| 2026-05-04 08:10 | 52.68981 | 5.11198 | 31990 ft | 496 kts | 45° |
| 2026-05-04 08:11 | 52.71349 | 5.15331 | 31990 ft | 494 kts | 45° |
| 2026-05-04 08:11 | 52.78409 | 5.27621 | 31991 ft | 490 kts | 45° |
| 2026-05-04 08:12 | 52.83097 | 5.35802 | 31986 ft | 489 kts | 45° |
| 2026-05-04 08:12 | 52.87770 | 5.43990 | 31991 ft | 489 kts | 45° |
| 2026-05-04 08:13 | 52.92438 | 5.52201 | 31988 ft | 490 kts | 45° |
| 2026-05-04 08:13 | 52.97105 | 5.60437 | 31976 ft | 490 kts | 45° |
| 2026-05-04 08:14 | 53.01774 | 5.68707 | 31993 ft | 491 kts | 45° |
| 2026-05-04 08:16 | 53.20486 | 6.02131 | 32002 ft | 496 kts | 45° |
| 2026-05-04 08:16 | 53.25158 | 6.10548 | 31997 ft | 497 kts | 45° |
| 2026-05-04 08:17 | 53.29850 | 6.19029 | 31981 ft | 497 kts | 45° |
| 2026-05-04 08:17 | 53.34536 | 6.27530 | 32000 ft | 497 kts | 45° |
| 2026-05-04 08:19 | 53.53169 | 6.61630 | 31988 ft | 495 kts | 46° |
| 2026-05-04 08:20 | 53.57776 | 6.70136 | 31996 ft | 495 kts | 46° |
| 2026-05-04 08:20 | 53.62405 | 6.78711 | 31984 ft | 495 kts | 46° |
| 2026-05-04 08:21 | 53.67024 | 6.87298 | 32002 ft | 494 kts | 46° |
| 2026-05-04 08:21 | 53.71641 | 6.95911 | 31999 ft | 495 kts | 46° |
| 2026-05-04 08:22 | 53.76252 | 7.04545 | 32008 ft | 495 kts | 46° |
| 2026-05-04 08:24 | 53.94713 | 7.39418 | 31992 ft | 498 kts | 46° |
| 2026-05-04 08:24 | 53.99322 | 7.48203 | 32006 ft | 498 kts | 46° |
| 2026-05-04 08:25 | 54.03930 | 7.57019 | 32018 ft | 498 kts | 46° |
| 2026-05-04 08:25 | 54.08532 | 7.65854 | 32007 ft | 498 kts | 46° |
| 2026-05-04 08:27 | 54.26812 | 8.01268 | 31995 ft | 497 kts | 46° |
| 2026-05-04 08:28 | 54.31358 | 8.10157 | 32004 ft | 495 kts | 46° |
| 2026-05-04 08:28 | 54.35889 | 8.19046 | 31999 ft | 494 kts | 46° |
| 2026-05-04 08:29 | 54.40404 | 8.27938 | 31997 ft | 494 kts | 46° |
| 2026-05-04 08:31 | 54.58377 | 8.63659 | 31956 ft | 490 kts | 47° |
| 2026-05-04 08:33 | 54.72325 | 8.97041 | 31980 ft | 494 kts | 59° |
| 2026-05-04 08:33 | 54.74024 | 9.02210 | 31977 ft | 495 kts | 59° |
| 2026-05-04 08:35 | 54.86154 | 9.38233 | 31733 ft | 495 kts | 59° |
| 2026-05-04 08:35 | 54.87883 | 9.43378 | 31472 ft | 491 kts | 59° |
| 2026-05-04 08:35 | 54.89597 | 9.48495 | 31254 ft | 489 kts | 58° |
| 2026-05-04 08:35 | 54.91291 | 9.53562 | 31012 ft | 483 kts | 58° |
| 2026-05-04 08:37 | 55.01195 | 9.83395 | 29458 ft | 473 kts | 58° |
| 2026-05-04 08:37 | 55.02827 | 9.88350 | 29148 ft | 470 kts | 59° |
| 2026-05-04 08:37 | 55.04461 | 9.93316 | 28989 ft | 473 kts | 59° |
| 2026-05-04 08:38 | 55.06095 | 9.98296 | 28944 ft | 470 kts | 59° |
| 2026-05-04 08:38 | 55.07726 | 10.03275 | 28112 ft | 474 kts | 59° |
| 2026-05-04 08:38 | 55.09350 | 10.08242 | 27657 ft | 469 kts | 59° |
| 2026-05-04 08:40 | 55.20249 | 10.41859 | 24945 ft | 435 kts | 60° |
| 2026-05-04 08:40 | 55.21731 | 10.46466 | 24504 ft | 434 kts | 60° |
| 2026-05-04 08:40 | 55.23208 | 10.51066 | 24110 ft | 431 kts | 60° |
| 2026-05-04 08:41 | 55.24673 | 10.55632 | 23734 ft | 428 kts | 60° |
| 2026-05-04 08:41 | 55.26123 | 10.60167 | 23339 ft | 425 kts | 60° |
| 2026-05-04 08:41 | 55.27517 | 10.64717 | 22885 ft | 422 kts | 65° |
| 2026-05-04 08:41 | 55.28528 | 10.69535 | 22439 ft | 419 kts | 74° |
| 2026-05-04 08:42 | 55.29337 | 10.74430 | 22021 ft | 417 kts | 75° |
| 2026-05-04 08:42 | 55.30123 | 10.79304 | 21590 ft | 414 kts | 75° |
| 2026-05-04 08:42 | 55.30919 | 10.84151 | 21174 ft | 413 kts | 73° |
| 2026-05-04 08:42 | 55.31916 | 10.88869 | 20702 ft | 412 kts | 65° |
| 2026-05-04 08:43 | 55.33114 | 10.93415 | 20325 ft | 409 kts | 64° |
| 2026-05-04 08:43 | 55.34341 | 10.97899 | 19958 ft | 406 kts | 63° |
| 2026-05-04 08:43 | 55.35564 | 11.02349 | 19575 ft | 403 kts | 63° |
| 2026-05-04 08:43 | 55.36771 | 11.06779 | 19191 ft | 401 kts | 64° |
| 2026-05-04 08:44 | 55.37958 | 11.11133 | 18837 ft | 399 kts | 63° |
| 2026-05-04 08:44 | 55.39192 | 11.15498 | 18421 ft | 397 kts | 62° |
| 2026-05-04 08:46 | 55.47683 | 11.45315 | 15757 ft | 381 kts | 62° |
| 2026-05-04 08:46 | 55.48855 | 11.49485 | 15409 ft | 378 kts | 62° |
| 2026-05-04 08:46 | 55.50016 | 11.53619 | 15057 ft | 376 kts | 62° |
| 2026-05-04 08:46 | 55.51171 | 11.57745 | 14711 ft | 374 kts | 62° |
| 2026-05-04 08:47 | 55.52317 | 11.61844 | 14369 ft | 371 kts | 62° |
| 2026-05-04 08:47 | 55.53455 | 11.65922 | 14025 ft | 369 kts | 62° |
| 2026-05-04 08:47 | 55.54587 | 11.69984 | 13683 ft | 367 kts | 62° |
| 2026-05-04 08:47 | 55.55710 | 11.74023 | 13316 ft | 365 kts | 62° |
| 2026-05-04 08:48 | 55.56823 | 11.78031 | 12954 ft | 363 kts | 62° |
| 2026-05-04 08:48 | 55.57931 | 11.82026 | 12581 ft | 361 kts | 62° |
| 2026-05-04 08:48 | 55.59032 | 11.86005 | 12233 ft | 360 kts | 62° |
| 2026-05-04 08:48 | 55.60127 | 11.89971 | 11884 ft | 357 kts | 62° |
| 2026-05-04 08:49 | 55.61209 | 11.93895 | 11674 ft | 351 kts | 62° |
| 2026-05-04 08:50 | 55.67129 | 12.15492 | 10876 ft | 311 kts | 62° |
| 2026-05-04 08:50 | 55.68070 | 12.18939 | 10587 ft | 311 kts | 62° |
| 2026-05-04 08:51 | 55.68995 | 12.22334 | 10347 ft | 309 kts | 62° |
| 2026-05-04 08:51 | 55.69925 | 12.25753 | 10155 ft | 306 kts | 62° |
| 2026-05-04 08:51 | 55.70836 | 12.29111 | 10069 ft | 298 kts | 62° |
| 2026-05-04 08:51 | 55.71724 | 12.32389 | 9960 ft | 292 kts | 62° |
| 2026-05-04 08:52 | 55.72602 | 12.35631 | 9739 ft | 292 kts | 62° |
| 2026-05-04 08:52 | 55.73481 | 12.38879 | 9483 ft | 291 kts | 62° |
| 2026-05-04 08:52 | 55.74352 | 12.42106 | 9264 ft | 288 kts | 62° |
| 2026-05-04 08:52 | 55.75215 | 12.45306 | 9025 ft | 287 kts | 62° |
| 2026-05-04 08:53 | 55.76077 | 12.48507 | 8817 ft | 287 kts | 62° |
| 2026-05-04 08:54 | 55.81391 | 12.70166 | 6432 ft | 275 kts | 48° |
| 2026-05-04 08:55 | 55.82588 | 12.72760 | 6122 ft | 269 kts | 45° |
| 2026-05-04 08:55 | 55.83798 | 12.75294 | 5833 ft | 270 kts | 45° |
| 2026-05-04 08:55 | 55.85014 | 12.77832 | 5514 ft | 267 kts | 45° |
| 2026-05-04 08:55 | 55.86213 | 12.80329 | 5193 ft | 263 kts | 45° |
| 2026-05-04 08:57 | 55.86898 | 12.98182 | 3046 ft | 248 kts | 155° |
| 2026-05-04 09:01 | 55.72694 | 12.82465 | 2711 ft | 162 kts | 226° |
| 2026-05-04 09:01 | 55.71857 | 12.81176 | 2499 ft | 157 kts | 227° |
| 2026-05-04 09:01 | 55.71030 | 12.79894 | 2292 ft | 159 kts | 227° |
| 2026-05-04 09:01 | 55.70192 | 12.78597 | 2070 ft | 161 kts | 226° |
| 2026-05-04 09:02 | 55.69358 | 12.77309 | 1852 ft | 157 kts | 226° |
| 2026-05-04 09:02 | 55.68534 | 12.76037 | 1639 ft | 157 kts | 226° |
| 2026-05-04 09:02 | 55.67720 | 12.74778 | 1421 ft | 155 kts | 227° |
| 2026-05-04 09:02 | 55.66915 | 12.73533 | 1215 ft | 152 kts | 227° |
| 2026-05-04 09:03 | 55.66099 | 12.72269 | 1015 ft | 157 kts | 226° |
| 2026-05-04 09:03 | 55.65281 | 12.71004 | 770 ft | 154 kts | 226° |
| 2026-05-04 09:03 | 55.64458 | 12.69730 | 582 ft | 160 kts | 225° |
| 2026-05-04 09:03 | 55.63617 | 12.68426 | 338 ft | 161 kts | 225° |
| 2026-05-04 09:04 | 55.62777 | 12.67135 | 114 ft | 160 kts | 227° |
| 2026-05-04 09:04 | 55.61993 | 12.65882 | 19 ft | 127 kts | 218° |
| 2026-05-04 09:04 | 55.61517 | 12.65143 | 17 ft | 69 kts | 217° |
| 2026-05-04 09:04 | 55.61313 | 12.64827 | 21 ft | 27 kts | 236° |
| 2026-05-04 09:05 | 55.61240 | 12.64539 | 18 ft | 12 kts | 251° |
| 2026-05-04 09:05 | 55.61239 | 12.64534 | 18 ft | 0 kts | 251° |
| 2026-05-04 09:05 | 55.61239 | 12.64533 | 18 ft | 1 kts | 251° |
| 2026-05-04 09:05 | 55.61225 | 12.64467 | 18 ft | 11 kts | 251° |
| 2026-05-04 09:06 | 55.61191 | 12.64290 | 17 ft | 20 kts | 249° |
| 2026-05-04 09:07 | 55.62120 | 12.65073 | 24 ft | 20 kts | 31° |
| 2026-05-04 09:08 | 55.62160 | 12.65118 | 25 ft | 0 kts | 32° |
| 2026-05-04 09:08 | 55.62202 | 12.65163 | 23 ft | 15 kts | 27° |
| 2026-05-04 09:08 | 55.62283 | 12.65057 | 22 ft | 17 kts | 299° |
| 2026-05-04 09:08 | 55.62345 | 12.64885 | 23 ft | 16 kts | 302° |
| 2026-05-04 09:09 | 55.62405 | 12.64721 | 21 ft | 16 kts | 304° |
| 2026-05-04 09:09 | 55.62465 | 12.64564 | 23 ft | 15 kts | 297° |
| 2026-05-04 09:09 | 55.62519 | 12.64411 | 20 ft | 14 kts | 302° |
| 2026-05-04 09:09 | 55.62577 | 12.64274 | 22 ft | 14 kts | 323° |
| 2026-05-04 09:10 | 55.62664 | 12.64310 | 21 ft | 13 kts | 23° |
| 2026-05-04 09:10 | 55.62719 | 12.64417 | 19 ft | 12 kts | 89° |
| 2026-05-04 09:10 | 55.62716 | 12.64438 | 20 ft | 3 kts | 104° |
| 2026-05-04 09:10 | 55.62714 | 12.64456 | 20 ft | 0 kts | 104° |